createdAt,value
2023-02-18T00:01:40.108Z,101379.44
2023-02-18T00:04:08.017Z,101383.75
2023-02-18T00:06:36.914Z,101382.91
2023-02-18T00:09:06.382Z,101376.69
2023-02-18T00:11:37.338Z,101395.19
2023-02-18T00:14:11.977Z,101386.38
2023-02-18T00:16:42.205Z,101395.34
2023-02-18T00:19:18.152Z,101395.28
2023-02-18T00:21:46.862Z,101386.53
2023-02-18T00:24:16.335Z,101378.56
2023-02-18T00:26:44.611Z,101374.88
2023-02-18T00:29:12.664Z,101377.53
2023-02-18T00:31:41.512Z,101378.44
2023-02-18T00:34:12.009Z,101373.78
2023-02-18T00:36:40.291Z,101380.16
2023-02-18T00:39:10.047Z,101385.38
2023-02-18T00:41:38.000Z,101373.16
2023-02-18T00:44:07.013Z,101374.03
2023-02-18T00:46:35.602Z,101362.38
2023-02-18T00:49:05.166Z,101364.19
2023-02-18T00:51:33.756Z,101368.56
2023-02-18T00:54:01.601Z,101361.47
2023-02-18T00:56:29.522Z,101365.91
2023-02-18T00:58:57.371Z,101360.47
2023-02-18T01:01:26.243Z,101362.25
2023-02-18T01:03:54.402Z,101354.34
2023-02-18T01:06:22.953Z,101370.41
2023-02-18T01:08:50.945Z,101363.31
2023-02-18T01:11:19.414Z,101365.19
2023-02-18T01:13:47.433Z,101361.56
2023-02-18T01:16:15.319Z,101368.56
2023-02-18T01:18:43.630Z,101366.69
2023-02-18T01:21:12.325Z,101359.47
2023-02-18T01:23:42.755Z,101362.19
2023-02-18T01:26:11.735Z,101357.78
2023-02-18T01:28:41.497Z,101348.94
2023-02-18T01:31:12.771Z,101354.13
2023-02-18T01:33:40.761Z,101353.47
2023-02-18T01:36:11.148Z,101350.53
2023-02-18T01:38:39.903Z,101345.19
2023-02-18T01:41:07.726Z,101342.72
2023-02-18T01:43:36.175Z,101354.16
2023-02-18T01:46:20.645Z,101353.13
2023-02-18T01:48:56.264Z,101335.56
2023-02-18T01:51:41.879Z,101352.25
2023-02-18T01:54:16.727Z,101344.44
2023-02-18T01:57:02.860Z,101341.59
2023-02-18T01:59:48.777Z,101337.22
2023-02-18T02:02:21.498Z,101331.09
2023-02-18T02:04:49.910Z,101341.00
2023-02-18T02:07:20.948Z,101328.53
2023-02-18T02:09:51.345Z,101333.06
2023-02-18T02:12:56.739Z,101327.84
2023-02-18T02:15:49.526Z,101327.94
2023-02-18T02:18:38.554Z,101335.81
2023-02-18T02:21:39.424Z,101325.09
2023-02-18T02:24:31.652Z,101325.28
2023-02-18T02:27:23.380Z,101319.91
2023-02-18T02:30:51.532Z,101329.81
2023-02-18T02:33:43.605Z,101321.88
2023-02-18T02:36:24.800Z,101326.28
2023-02-18T02:39:17.326Z,101322.72
2023-02-18T02:42:19.978Z,101319.97
2023-02-18T02:45:04.266Z,101325.19
2023-02-18T02:47:57.134Z,101311.94
2023-02-18T02:51:00.132Z,101302.22
2023-02-18T02:53:33.820Z,101293.44
2023-02-18T02:56:25.610Z,101288.78
2023-02-18T02:59:04.355Z,101293.13
2023-02-18T03:02:18.106Z,101290.53
2023-02-18T03:05:12.083Z,101292.44
2023-02-18T03:08:00.908Z,101297.09
2023-02-18T03:10:34.803Z,101293.53
2023-02-18T03:13:26.022Z,101283.69
2023-02-18T03:16:00.651Z,101289.13
2023-02-18T03:19:07.634Z,101286.44
2023-02-18T03:21:44.729Z,101287.59
2023-02-18T03:24:25.143Z,101291.03
2023-02-18T03:26:59.596Z,101291.72
2023-02-18T03:29:28.907Z,101292.72
2023-02-18T03:32:02.972Z,101292.66
2023-02-18T03:34:38.196Z,101298.72
2023-02-18T03:37:08.804Z,101303.25
2023-02-18T03:39:39.849Z,101298.81
2023-02-18T03:42:07.886Z,101293.59
2023-02-18T03:44:35.924Z,101295.22
2023-02-18T03:47:04.219Z,101296.03
2023-02-18T03:49:32.179Z,101292.44
2023-02-18T03:52:01.602Z,101296.84
2023-02-18T03:54:29.610Z,101274.63
2023-02-18T03:56:57.378Z,101269.53
2023-02-18T03:59:25.211Z,101278.41
2023-02-18T04:01:53.019Z,101282.75
2023-02-18T04:04:20.866Z,101292.50
2023-02-18T04:06:48.643Z,101295.28
2023-02-18T04:09:16.322Z,101283.94
2023-02-18T04:11:44.096Z,101298.91
2023-02-18T04:14:14.450Z,101295.28
2023-02-18T04:16:42.735Z,101291.91
2023-02-18T04:19:10.626Z,101294.66
2023-02-18T04:21:38.367Z,101292.66
2023-02-18T04:24:06.364Z,101291.72
2023-02-18T04:26:34.278Z,101293.53
2023-02-18T04:29:02.109Z,101289.06
2023-02-18T04:31:30.217Z,101291.84
2023-02-18T04:33:58.258Z,101301.56
2023-02-18T04:36:25.988Z,101301.63
2023-02-18T04:38:53.902Z,101289.22
2023-02-18T04:41:21.612Z,101302.50
2023-02-18T04:43:49.304Z,101295.44
2023-02-18T04:46:17.205Z,101305.22
2023-02-18T04:48:45.463Z,101300.69
2023-02-18T04:51:13.320Z,101309.50
2023-02-18T04:53:41.050Z,101306.81
2023-02-18T04:56:09.558Z,101279.38
2023-02-18T04:58:37.642Z,101298.81
2023-02-18T05:01:05.597Z,101285.59
2023-02-18T05:03:33.782Z,101279.44
2023-02-18T05:06:01.562Z,101280.31
2023-02-18T05:08:29.263Z,101287.41
2023-02-18T05:10:57.008Z,101275.84
2023-02-18T05:13:24.742Z,101286.44
2023-02-18T05:15:52.933Z,101274.91
2023-02-18T05:18:20.768Z,101288.28
2023-02-18T05:20:48.663Z,101272.56
2023-02-18T05:23:16.707Z,101268.81
2023-02-18T05:25:44.661Z,101265.13
2023-02-18T05:28:12.651Z,101260.59
2023-02-18T05:30:40.469Z,101250.09
2023-02-18T05:33:08.211Z,101266.69
2023-02-18T05:35:36.023Z,101256.91
2023-02-18T05:38:03.892Z,101257.72
2023-02-18T05:40:31.771Z,101241.78
2023-02-18T05:42:59.714Z,101242.72
2023-02-18T05:45:27.637Z,101247.31
2023-02-18T05:47:55.335Z,101255.25
2023-02-18T05:50:23.330Z,101260.69
2023-02-18T05:52:51.102Z,101258.03
2023-02-18T05:55:19.365Z,101257.16
2023-02-18T05:57:47.110Z,101243.00
2023-02-18T06:00:15.643Z,101244.88
2023-02-18T06:02:43.375Z,101260.78
2023-02-18T06:05:11.241Z,101244.03
2023-02-18T06:07:38.982Z,101246.72
2023-02-18T06:10:07.901Z,101248.59
2023-02-18T06:12:35.818Z,101241.50
2023-02-18T06:15:04.214Z,101247.75
2023-02-18T06:17:32.080Z,101254.13
2023-02-18T06:19:59.817Z,101258.59
2023-02-18T06:22:27.764Z,101247.16
2023-02-18T06:24:55.477Z,101241.13
2023-02-18T06:27:23.439Z,101245.41
2023-02-18T06:29:51.158Z,101255.13
2023-02-18T06:32:18.989Z,101251.50
2023-02-18T06:34:47.132Z,101248.91
2023-02-18T06:37:14.844Z,101240.00
2023-02-18T06:39:42.705Z,101233.00
2023-02-18T06:42:10.777Z,101238.34
2023-02-18T06:44:38.650Z,101231.34
2023-02-18T06:47:07.295Z,101229.47
2023-02-18T06:49:36.402Z,101230.31
2023-02-18T06:52:05.289Z,101224.16
2023-02-18T06:54:34.407Z,101218.75
2023-02-18T06:57:02.216Z,101216.16
2023-02-18T06:59:29.902Z,101205.53
2023-02-18T07:01:57.875Z,101210.81
2023-02-18T07:04:25.615Z,101212.63
2023-02-18T07:06:53.359Z,101204.66
2023-02-18T07:09:21.096Z,101200.13
2023-02-18T07:11:49.018Z,101202.78
2023-02-18T07:14:16.907Z,101191.22
2023-02-18T07:16:44.775Z,101203.47
2023-02-18T07:19:14.629Z,101191.13
2023-02-18T07:21:43.459Z,101176.72
2023-02-18T07:24:11.348Z,101182.03
2023-02-18T07:26:39.479Z,101183.00
2023-02-18T07:29:07.180Z,101179.16
2023-02-18T07:31:35.072Z,101174.00
2023-02-18T07:34:02.837Z,101187.97
2023-02-18T07:36:30.586Z,101183.41
2023-02-18T07:38:58.298Z,101186.06
2023-02-18T07:41:26.809Z,101179.16
2023-02-18T07:43:54.586Z,101182.44
2023-02-18T07:46:22.670Z,101191.25
2023-02-18T07:48:50.413Z,101179.56
2023-02-18T07:51:18.138Z,101180.44
2023-02-18T07:53:46.002Z,101184.84
2023-02-18T07:56:13.758Z,101181.31
2023-02-18T07:58:41.611Z,101170.59
2023-02-18T08:01:13.116Z,101166.81
2023-02-18T08:03:40.936Z,101164.84
2023-02-18T08:06:19.357Z,101178.63
2023-02-18T08:08:47.270Z,101164.19
2023-02-18T08:11:19.545Z,101162.03
2023-02-18T08:13:49.000Z,101151.25
2023-02-18T08:16:19.189Z,101162.56
2023-02-18T08:18:48.556Z,101146.50
2023-02-18T08:21:18.031Z,101145.34
2023-02-18T08:23:45.970Z,101159.22
2023-02-18T08:26:14.526Z,101151.00
2023-02-18T08:28:47.170Z,101162.25
2023-02-18T08:31:25.819Z,101154.97
2023-02-18T08:33:56.186Z,101156.59
2023-02-18T08:36:24.585Z,101151.09
2023-02-18T08:38:52.433Z,101160.56
2023-02-18T08:41:20.527Z,101159.44
2023-02-18T08:43:48.901Z,101152.22
2023-02-18T08:46:24.880Z,101141.53
2023-02-18T08:48:55.190Z,101155.41
2023-02-18T08:51:23.520Z,101159.75
2023-02-18T08:54:11.170Z,101148.22
2023-02-18T08:56:39.737Z,101147.09
2023-02-18T08:59:27.472Z,101136.16
2023-02-18T09:02:15.640Z,101144.72
2023-02-18T09:04:43.675Z,101135.81
2023-02-18T09:07:11.584Z,101147.88
2023-02-18T09:09:39.353Z,101132.59
2023-02-18T09:12:07.680Z,101140.44
2023-02-18T09:14:35.479Z,101134.91
2023-02-18T09:17:03.397Z,101129.50
2023-02-18T09:19:31.223Z,101111.59
2023-02-18T09:22:00.745Z,101133.50
2023-02-18T09:24:28.870Z,101141.56
2023-02-18T09:26:56.700Z,101130.47
2023-02-18T09:29:24.766Z,101134.00
2023-02-18T09:31:52.620Z,101131.06
2023-02-18T09:34:20.391Z,101115.66
2023-02-18T09:36:48.228Z,101129.25
2023-02-18T09:39:18.023Z,101131.66
2023-02-18T09:41:54.121Z,101130.88
2023-02-18T09:44:40.283Z,101143.34
2023-02-18T09:47:20.085Z,101139.34
2023-02-18T09:50:05.529Z,101145.22
2023-02-18T09:52:38.335Z,101152.19
2023-02-18T09:55:23.993Z,101141.94
2023-02-18T09:57:56.323Z,101159.06
2023-02-18T10:00:52.506Z,101159.06
2023-02-18T10:03:25.484Z,101156.44
2023-02-18T10:06:01.214Z,101150.84
2023-02-18T10:08:40.281Z,101149.03
2023-02-18T10:11:42.293Z,101162.53
2023-02-18T10:14:13.630Z,101140.47
2023-02-18T10:16:43.162Z,101157.94
2023-02-18T10:19:34.650Z,101157.25
2023-02-18T10:22:05.353Z,101156.13
2023-02-18T10:24:44.251Z,101144.91
2023-02-18T10:27:25.173Z,101130.25
2023-02-18T10:29:54.455Z,101134.53
2023-02-18T10:32:34.306Z,101149.91
2023-02-18T10:36:25.288Z,101122.72
2023-02-18T10:39:32.278Z,101115.31
2023-02-18T10:42:29.379Z,101127.66
2023-02-18T10:45:28.774Z,101122.16
2023-02-18T10:48:28.055Z,101119.06
2023-02-18T10:50:58.686Z,101121.84
2023-02-18T10:53:38.818Z,101105.25
2023-02-18T10:56:08.352Z,101114.91
2023-02-18T10:58:46.090Z,101109.22
2023-02-18T11:01:17.580Z,101113.25
2023-02-18T11:03:49.106Z,101124.38
2023-02-18T11:06:41.016Z,101126.25
2023-02-18T11:09:33.765Z,101133.88
2023-02-18T11:12:14.110Z,101143.69
2023-02-18T11:14:49.272Z,101141.75
2023-02-18T11:17:28.109Z,101128.09
2023-02-18T11:20:02.139Z,101126.34
2023-02-18T11:22:41.463Z,101129.59
2023-02-18T11:25:28.364Z,101131.31
2023-02-18T11:28:00.450Z,101116.31
2023-02-18T11:30:34.853Z,101130.16
2023-02-18T11:33:09.982Z,101115.88
2023-02-18T11:35:38.261Z,101113.69
2023-02-18T11:38:36.750Z,101122.31
2023-02-18T11:41:10.306Z,101110.94
2023-02-18T11:43:45.613Z,101100.47
2023-02-18T11:46:27.166Z,101112.09
2023-02-18T11:48:56.050Z,101092.16
2023-02-18T11:51:33.086Z,101096.50
2023-02-18T11:54:05.268Z,101091.09
2023-02-18T11:56:36.190Z,101086.56
2023-02-18T11:59:04.918Z,101089.72
2023-02-18T12:01:47.647Z,101099.66
2023-02-18T12:04:42.891Z,101087.72
2023-02-18T12:07:31.837Z,101090.34
2023-02-18T12:10:11.942Z,101087.63
2023-02-18T12:13:04.949Z,101088.41
2023-02-18T12:15:52.821Z,101079.47
2023-02-18T12:18:57.711Z,101085.81
2023-02-18T12:21:55.555Z,101082.59
2023-02-18T12:24:33.777Z,101077.28
2023-02-18T12:27:22.631Z,101069.91
2023-02-18T12:30:33.032Z,101064.63
2023-02-18T12:33:37.406Z,101054.88
2023-02-18T12:36:33.085Z,101064.97
2023-02-18T12:39:41.408Z,101058.88
2023-02-18T12:42:33.495Z,101053.56
2023-02-18T12:45:18.524Z,101051.44
2023-02-18T12:48:23.289Z,101056.81
2023-02-18T12:51:14.985Z,101041.06
2023-02-18T12:53:50.275Z,101031.25
2023-02-18T12:56:42.662Z,101035.69
2023-02-18T12:59:51.376Z,101028.81
2023-02-18T13:02:46.511Z,101021.13
2023-02-18T13:05:29.237Z,101017.09
2023-02-18T13:08:30.842Z,101021.94
2023-02-18T13:11:10.918Z,101029.22
2023-02-18T13:14:11.963Z,101016.56
2023-02-18T13:16:44.861Z,101008.56
2023-02-18T13:19:44.313Z,101024.28
2023-02-18T13:22:16.288Z,101010.78
2023-02-18T13:24:48.618Z,101007.16
2023-02-18T13:27:48.278Z,101011.47
2023-02-18T13:30:36.639Z,101004.47
2023-02-18T13:33:36.812Z,101002.56
2023-02-18T13:36:23.702Z,101010.47
2023-02-18T13:39:03.384Z,101003.66
2023-02-18T13:41:40.720Z,100992.66
2023-02-18T13:44:28.737Z,100980.50
2023-02-18T13:46:59.192Z,100983.69
2023-02-18T13:49:34.616Z,100991.19
2023-02-18T13:52:04.356Z,100975.41
2023-02-18T13:54:45.010Z,100970.13
2023-02-18T13:57:27.038Z,100964.69
2023-02-18T14:00:02.779Z,100971.59
2023-02-18T14:02:36.857Z,100972.81
2023-02-18T14:05:08.377Z,100983.53
2023-02-18T14:07:36.101Z,100993.72
2023-02-18T14:10:32.586Z,101005.00
2023-02-18T14:13:00.430Z,101015.84
2023-02-18T14:15:28.780Z,101006.16
2023-02-18T14:18:14.253Z,101009.63
2023-02-18T14:20:46.674Z,101004.38
2023-02-18T14:23:20.533Z,101012.59
2023-02-18T14:26:14.856Z,101009.41
2023-02-18T14:28:54.772Z,100988.00
2023-02-18T14:31:48.958Z,101004.47
2023-02-18T14:35:11.153Z,100998.94
2023-02-18T14:38:04.288Z,101024.31
2023-02-18T14:41:32.933Z,101016.25
2023-02-18T14:45:04.869Z,101016.84
2023-02-18T14:47:59.582Z,101018.03
2023-02-18T14:50:35.372Z,101017.25
2023-02-18T14:53:18.432Z,101017.16
2023-02-18T14:56:09.201Z,101011.16
2023-02-18T14:58:48.051Z,101015.50
2023-02-18T15:01:33.180Z,101004.69
2023-02-18T15:04:02.733Z,101002.47
2023-02-18T15:06:37.641Z,101011.94
2023-02-18T15:09:22.345Z,101002.16
2023-02-18T15:11:55.023Z,101001.28
2023-02-18T15:14:39.443Z,101005.78
2023-02-18T15:17:23.996Z,101001.59
2023-02-18T15:19:58.773Z,100999.13
2023-02-18T15:22:31.484Z,101002.78
2023-02-18T15:25:00.107Z,101000.47
2023-02-18T15:27:35.107Z,101001.97
2023-02-18T15:30:21.278Z,101008.50
2023-02-18T15:32:59.043Z,101000.09
2023-02-18T15:35:31.698Z,100995.16
2023-02-18T15:38:01.812Z,101015.91
2023-02-18T15:40:37.140Z,101004.63
2023-02-18T15:43:07.799Z,101007.44
2023-02-18T15:45:41.410Z,101004.94
2023-02-18T15:48:33.518Z,101007.66
2023-02-18T15:51:16.875Z,101003.75
2023-02-18T15:53:50.131Z,100989.38
2023-02-18T15:56:35.500Z,100989.38
2023-02-18T15:59:36.940Z,100982.66
2023-02-18T16:02:08.901Z,100990.00
2023-02-18T16:04:45.679Z,100993.75
2023-02-18T16:07:49.378Z,100980.03
2023-02-18T16:10:36.929Z,100996.94
2023-02-18T16:13:06.046Z,101004.25
2023-02-18T16:15:40.712Z,100998.75
2023-02-18T16:18:41.453Z,101012.31
2023-02-18T16:21:18.038Z,100999.88
2023-02-18T16:23:57.851Z,101003.47
2023-02-18T16:26:28.531Z,101014.25
2023-02-18T16:29:34.383Z,101013.75
2023-02-18T16:32:02.504Z,101030.09
2023-02-18T16:34:30.340Z,101026.63
2023-02-18T16:37:16.952Z,101031.28
2023-02-18T16:39:44.702Z,101028.72
2023-02-18T16:42:13.818Z,101025.25
2023-02-18T16:44:41.795Z,101034.09
2023-02-18T16:47:16.572Z,101034.03
2023-02-18T16:49:51.109Z,101041.34
2023-02-18T16:52:19.819Z,101035.44
2023-02-18T16:54:53.257Z,101042.22
2023-02-18T16:57:21.901Z,101037.78
2023-02-18T16:59:50.271Z,101035.03
2023-02-18T17:02:22.454Z,101048.56
2023-02-18T17:04:54.384Z,101044.56
2023-02-18T17:07:23.908Z,101045.56
2023-02-18T17:09:51.724Z,101058.03
2023-02-18T17:12:19.635Z,101053.06
2023-02-18T17:14:47.983Z,101064.59
2023-02-18T17:17:17.940Z,101068.00
2023-02-18T17:19:45.651Z,101076.03
2023-02-18T17:22:14.450Z,101060.13
2023-02-18T17:24:42.294Z,101062.91
2023-02-18T17:27:14.006Z,101078.06
2023-02-18T17:29:41.697Z,101075.63
2023-02-18T17:32:09.517Z,101075.03
2023-02-18T17:34:40.960Z,101076.91
2023-02-18T17:37:13.873Z,101077.84
2023-02-18T17:39:41.719Z,101089.41
2023-02-18T17:42:12.201Z,101093.78
2023-02-18T17:44:40.553Z,101096.53
2023-02-18T17:47:08.364Z,101097.66
2023-02-18T17:49:36.244Z,101107.31
2023-02-18T17:52:04.724Z,101099.34
2023-02-18T17:54:32.515Z,101101.94
2023-02-18T17:57:00.332Z,101113.53
2023-02-18T17:59:29.149Z,101109.03
2023-02-18T18:01:57.073Z,101102.16
2023-02-18T18:04:25.159Z,101124.34
2023-02-18T18:06:52.948Z,101103.19
2023-02-18T18:09:20.656Z,101106.81
2023-02-18T18:11:48.422Z,101109.38
2023-02-18T18:14:16.097Z,101119.16
2023-02-18T18:16:43.883Z,101120.81
2023-02-18T18:19:11.992Z,101124.50
2023-02-18T18:21:40.359Z,101129.13
2023-02-18T18:24:12.184Z,101138.91
2023-02-18T18:26:41.880Z,101124.81
2023-02-18T18:29:10.146Z,101132.06
2023-02-18T18:31:39.053Z,101120.66
2023-02-18T18:34:06.941Z,101129.50
2023-02-18T18:36:34.815Z,101122.59
2023-02-18T18:39:02.763Z,101137.78
2023-02-18T18:41:30.666Z,101138.72
2023-02-18T18:43:58.714Z,101135.44
2023-02-18T18:46:26.713Z,101134.50
2023-02-18T18:48:54.626Z,101122.16
2023-02-18T18:51:29.910Z,101137.28
2023-02-18T18:53:57.640Z,101130.53
2023-02-18T18:56:25.390Z,101116.66
2023-02-18T18:58:53.347Z,101136.47
2023-02-18T19:01:27.141Z,101142.00
2023-02-18T19:03:55.438Z,101143.09
2023-02-18T19:06:24.572Z,101139.63
2023-02-18T19:08:52.399Z,101127.34
2023-02-18T19:11:20.051Z,101145.00
2023-02-18T19:13:47.810Z,101141.53
2023-02-18T19:16:21.231Z,101138.88
2023-02-18T19:18:51.694Z,101125.66
2023-02-18T19:21:19.427Z,101111.59
2023-02-18T19:23:47.557Z,101119.47
2023-02-18T19:26:16.772Z,101121.28
2023-02-18T19:28:46.156Z,101126.72
2023-02-18T19:31:14.667Z,101137.41
2023-02-18T19:33:45.534Z,101135.00
2023-02-18T19:36:14.941Z,101139.47
2023-02-18T19:38:42.996Z,101139.63
2023-02-18T19:41:16.825Z,101133.50
2023-02-18T19:43:46.649Z,101125.59
2023-02-18T19:46:19.931Z,101139.72
2023-02-18T19:48:50.993Z,101138.91
2023-02-18T19:51:21.306Z,101137.22
2023-02-18T19:53:49.316Z,101132.75
2023-02-18T19:56:17.151Z,101138.16
2023-02-18T19:58:45.025Z,101130.28
2023-02-18T20:01:18.326Z,101138.22
2023-02-18T20:03:47.284Z,101126.13
2023-02-18T20:06:22.180Z,101131.16
2023-02-18T20:08:49.972Z,101132.09
2023-02-18T20:11:18.073Z,101132.88
2023-02-18T20:13:48.340Z,101122.97
2023-02-18T20:16:16.277Z,101127.53
2023-02-18T20:18:44.055Z,101125.81
2023-02-18T20:21:12.574Z,101119.59
2023-02-18T20:23:40.754Z,101115.28
2023-02-18T20:26:10.768Z,101121.50
2023-02-18T20:28:38.780Z,101119.69
2023-02-18T20:31:11.161Z,101122.19
2023-02-18T20:33:42.319Z,101110.88
2023-02-18T20:36:12.671Z,101125.75
2023-02-18T20:38:40.489Z,101107.16
2023-02-18T20:41:12.027Z,101109.59
2023-02-18T20:43:40.965Z,101122.03
2023-02-18T20:46:13.576Z,101122.03
2023-02-18T20:48:41.818Z,101122.03
2023-02-18T20:51:16.682Z,101118.38
2023-02-18T20:53:46.180Z,101121.22
2023-02-18T20:56:14.313Z,101120.22
2023-02-18T20:58:42.272Z,101130.03
2023-02-18T21:01:14.824Z,101131.84
2023-02-18T21:03:45.249Z,101132.00
2023-02-18T21:06:17.059Z,101138.09
2023-02-18T21:08:47.141Z,101136.19
2023-02-18T21:11:23.171Z,101133.59
2023-02-18T21:13:54.325Z,101135.47
2023-02-18T21:16:23.821Z,101137.28
2023-02-18T21:18:51.917Z,101137.13
2023-02-18T21:21:20.367Z,101139.72
2023-02-18T21:23:48.064Z,101121.16
2023-02-18T21:26:23.390Z,101125.47
2023-02-18T21:28:58.631Z,101130.72
2023-02-18T21:31:49.783Z,101129.84
2023-02-18T21:34:17.719Z,101126.47
2023-02-18T21:36:45.673Z,101125.47
2023-02-18T21:39:13.429Z,101127.22
2023-02-18T21:41:41.611Z,101126.28
2023-02-18T21:44:10.383Z,101128.16
2023-02-18T21:46:39.715Z,101120.19
2023-02-18T21:49:09.818Z,101115.78
2023-02-18T21:52:11.814Z,101120.06
2023-02-18T21:54:44.831Z,101114.84
2023-02-18T21:57:18.388Z,101104.19
2023-02-18T21:59:46.225Z,101116.66
2023-02-18T22:02:34.028Z,101108.56
2023-02-18T22:05:08.431Z,101091.13
2023-02-18T22:07:36.179Z,101112.28
2023-02-18T22:10:04.320Z,101103.31
2023-02-18T22:12:33.896Z,101109.59
2023-02-18T22:15:01.700Z,101104.25
2023-02-18T22:17:31.977Z,101095.34
2023-02-18T22:19:59.787Z,101091.19
2023-02-18T22:22:27.703Z,101082.22
2023-02-18T22:24:55.532Z,101087.75
2023-02-18T22:27:24.396Z,101089.56
2023-02-18T22:29:52.213Z,101078.06
2023-02-18T22:32:20.763Z,101077.13
2023-02-18T22:34:48.712Z,101077.31
2023-02-18T22:37:16.372Z,101080.97
2023-02-18T22:39:44.217Z,101076.59
2023-02-18T22:42:11.984Z,101077.63
2023-02-18T22:44:39.864Z,101065.22
2023-02-18T22:47:07.550Z,101056.56
2023-02-18T22:49:35.347Z,101063.03
2023-02-18T22:52:03.352Z,101066.72
2023-02-18T22:54:31.191Z,101065.69
2023-02-18T22:56:59.067Z,101072.84
2023-02-18T22:59:26.815Z,101055.94
2023-02-18T23:01:54.594Z,101056.88
2023-02-18T23:04:22.556Z,101055.09
2023-02-18T23:06:51.015Z,101057.00
2023-02-18T23:09:24.707Z,101050.75
2023-02-18T23:11:56.277Z,101041.81
2023-02-18T23:14:28.000Z,101041.72
2023-02-18T23:17:15.193Z,101049.84
2023-02-18T23:19:43.988Z,101053.34
2023-02-18T23:22:15.493Z,101049.81
2023-02-18T23:24:45.663Z,101056.19
2023-02-18T23:27:15.554Z,101053.56
2023-02-18T23:29:43.643Z,101048.25
2023-02-18T23:32:11.542Z,101057.22
2023-02-18T23:34:39.627Z,101055.53
2023-02-18T23:37:07.716Z,101052.16
2023-02-18T23:39:35.815Z,101063.69
2023-02-18T23:42:03.758Z,101055.66
2023-02-18T23:44:31.711Z,101048.63
2023-02-18T23:47:00.271Z,101061.09
2023-02-18T23:49:28.803Z,101065.69
2023-02-18T23:51:57.799Z,101060.41
2023-02-18T23:54:25.812Z,101054.25
2023-02-18T23:56:53.704Z,101056.00
2023-02-18T23:59:21.649Z,101047.97
